Latest Weather Observations for Holsworthy

IDN60801

Issued at 5:32 am EDT Tuesday 24 October 2017 (issued every 30 minutes, with the page automatically refreshed every 10 minutes)

About weather observations | Map of weather stations | Latest weather observations for NSW | Other Formats
Station Details ID: 066161 Name: HOLSWORTHY AERODROME AWS Lat: -33.99 Lon: 150.95 Height: 68.16 m
Data from the previous 72 hours. | See also: Recent months at Holsworthy
Date/Time
EDT
Temp
°C
App
Temp
°C
Dew
Point
°C
Rel
Hum
%
Delta-T
°C
Wind Press
QNH
hPa
Press
MSL
hPa
Rain since
9am
mm
Dir  Spd
km/h
Gust
km/h
Spd
kts
Gust
kts
24/05:30am 10.8 9.8 10.2 96 0.3 W 6 7 3 4 1018.4 1018.2 0.2
24/05:00am 10.7 10.6 9.6 93 0.6 CALM 0 0 0 0 1018.2 1018.0 0.2
24/04:30am 10.8 10.8 9.9 94 0.5 CALM 0 0 0 0 1018.1 1017.9 0.2
24/04:00am 11.0 10.0 10.4 96 0.3 SW 6 7 3 4 1018.2 1018.0 0.2
24/03:30am 10.5 10.4 9.3 92 0.6 CALM 0 0 0 0 1018.4 1018.2 0.2
24/03:00am 11.3 11.4 10.2 93 0.6 CALM 0 0 0 0 1018.5 1018.3 0.2
24/02:30am 11.9 12.2 10.8 93 0.6 CALM 0 0 0 0 1018.5 1018.3 0.2
24/02:00am 12.0 12.3 10.9 93 0.6 CALM 0 0 0 0 1018.8 1018.6 0.2
24/01:30am 12.2 12.4 10.6 90 0.8 CALM 0 0 0 0 1019.1 1018.9 0.2
24/01:00am 12.3 12.6 10.9 91 0.7 CALM 0 0 0 0 1019.4 1019.3 0.2
24/12:30am 12.5 12.9 11.1 91 0.7 CALM 0 0 0 0 1019.5 1019.4 0.2
24/12:00am 13.2 13.8 11.9 92 0.7 CALM 0 0 0 0 1019.7 1019.6 0.2
 
Date/Time
EDT
Temp
°C
App
Temp
°C
Dew
Point
°C
Rel
Hum
%
Delta-T
°C
Wind Press
QNH
hPa
Press
MSL
hPa
Rain since
9am
mm
Dir  Spd
km/h
Gust
km/h
Spd
kts
Gust
kts
23/11:30pm 13.6 14.2 11.8 89 1.0 CALM 0 0 0 0 1019.7 1019.6 0.2
23/11:00pm 13.5 14.0 11.7 89 1.0 CALM 0 0 0 0 1019.6 1019.5 0.2
23/10:30pm 13.9 14.3 11.4 85 1.3 CALM 0 0 0 0 1019.7 1019.6 0.2
23/10:00pm 14.1 14.6 11.6 85 1.3 CALM 0 0 0 0 1019.4 1019.3 0.2
23/09:30pm 15.7 15.1 11.7 77 2.2 N 6 17 3 9 1019.1 1018.9 0.2
23/09:00pm 15.7 15.0 11.9 78 2.1 NE 7 9 4 5 1018.7 1018.5 0.2
23/08:30pm 16.3 15.2 12.1 76 2.3 SE 9 15 5 8 1018.6 1018.4 0.2
23/08:00pm 16.4 15.8 12.2 76 2.3 E 7 11 4 6 1017.9 1017.7 0.2
23/07:30pm 16.9 15.5 12.2 74 2.6 E 11 15 6 8 1017.6 1017.4 0.2
23/07:00pm 17.5 14.9 12.0 70 3.0 E 17 22 9 12 1017.4 1017.2 0.2
23/06:30pm 18.2 16.1 12.4 69 3.2 ENE 15 24 8 13 1017.1 1016.9 0.2
23/06:00pm 18.7 15.4 10.8 60 4.3 E 19 28 10 15 1016.9 1016.7 0.2
23/05:30pm 19.5 16.2 11.0 58 4.6 E 19 26 10 14 1016.7 1016.5 0.2
23/05:00pm 20.1 16.7 11.1 56 4.9 E 20 28 11 15 1016.7 1016.5 0.2
23/04:30pm 20.2 16.5 10.3 53 5.4 ENE 20 28 11 15 1016.8 1016.6 0.2
23/04:00pm 20.7 17.0 9.6 49 5.9 ENE 19 28 10 15 1016.8 1016.6 0.2
23/03:30pm 20.6 17.4 9.8 50 5.8 ESE 17 26 9 14 1016.8 1016.6 0.2
23/03:00pm 20.5 17.0 10.3 52 5.5 E 19 28 10 15 1017.0 1016.8 0.2
23/02:30pm 20.7 18.0 10.2 51 5.7 ENE 15 28 8 15 1017.0 1016.8 0.2
23/02:00pm 20.0 16.7 9.6 51 5.5 ESE 17 24 9 13 1017.4 1017.2 0.2
23/01:30pm 21.0 18.4 9.3 47 6.3 E 13 19 7 10 1017.5 1017.3 0.2
23/01:00pm 20.6 18.4 9.2 48 6.1 SE 11 20 6 11 1017.7 1017.5 0.2
23/12:30pm 20.1 18.4 8.4 47 6.1 W 7 15 4 8 1018.0 1017.8 0.2
23/12:00pm 19.3 16.4 8.3 49 5.7 SSE 13 20 7 11 1018.2 1018.0 0.0
23/11:30am 19.4 17.9 9.0 51 5.5 SW 7 13 4 7 1018.5 1018.3 0.0
23/11:00am 18.9 17.2 9.7 55 4.9 SW 9 15 5 8 1018.7 1018.5 0.0
23/10:30am 18.0 16.5 9.1 56 4.7 WSW 7 13 4 7 1018.7 1018.5 0.0
23/10:00am 18.5 16.2 9.0 54 5.0 SE 11 19 6 10 1018.7 1018.5 0.0
23/09:30am 18.1 16.0 9.7 58 4.4 SE 11 17 6 9 1018.5 1018.3 0.0
23/09:00am 16.3 14.8 10.6 69 3.0 WNW 9 13 5 7 1018.3 1018.1 10.0
23/08:30am 14.7 13.2 10.7 77 2.1 W 9 13 5 7 1018.1 1017.9 10.0
23/08:00am 13.1 11.2 10.5 84 1.4 WSW 11 15 6 8 1017.9 1017.7 10.0
23/07:30am 11.4 9.7 9.8 90 0.8 W 9 13 5 7 1017.7 1017.5 10.0
23/07:00am 10.3 8.4 9.1 92 0.6 WSW 9 11 5 6 1017.5 1017.3 10.0
23/06:30am 9.9 7.6 9.1 95 0.4 WSW 11 15 6 8 1017.4 1017.2 10.0
23/06:00am 9.5 7.6 8.9 96 0.3 WSW 9 11 5 6 1017.0 1016.8 10.0
23/05:30am 9.9 7.7 9.3 96 0.3 WSW 11 13 6 7 1016.6 1016.4 10.0
23/05:00am 9.8 7.9 9.0 95 0.4 WSW 9 11 5 6 1016.4 1016.2 10.0
23/04:30am 10.5 9.1 9.7 95 0.4 WSW 7 11 4 6 1016.2 1016.0 10.0
23/04:00am 11.1 9.1 10.2 94 0.5 SW 11 13 6 7 1016.1 1015.9 10.0
23/03:30am 11.4 10.2 10.3 93 0.6 WSW 7 9 4 5 1016.3 1016.1 10.0
23/03:00am 11.9 10.4 10.6 92 0.7 SW 9 15 5 8 1016.3 1016.1 10.0
23/02:30am 12.2 10.8 10.9 92 0.7 SW 9 13 5 7 1016.5 1016.3 10.0
23/02:00am 12.6 11.3 11.2 91 0.7 SW 9 13 5 7 1016.6 1016.4 10.0
23/01:30am 13.1 11.5 11.7 91 0.7 SW 11 13 6 7 1016.5 1016.3 10.0
23/01:00am 13.3 11.8 11.9 91 0.8 WSW 11 13 6 7 1016.7 1016.5 10.0
23/12:30am 13.5 12.0 11.9 90 0.9 SW 11 13 6 7 1016.7 1016.5 10.0
23/12:00am 13.8 12.9 12.5 92 0.7 WSW 9 13 5 7 1016.7 1016.5 10.0
 
Date/Time
EDT
Temp
°C
App
Temp
°C
Dew
Point
°C
Rel
Hum
%
Delta-T
°C
Wind Press
QNH
hPa
Press
MSL
hPa
Rain since
9am
mm
Dir  Spd
km/h
Gust
km/h
Spd
kts
Gust
kts
22/11:30pm 13.9 13.0 12.6 92 0.7 WSW 9 11 5 6 1016.6 1016.4 10.0
22/11:00pm 13.9 13.0 12.6 92 0.7 SW 9 11 5 6 1016.5 1016.3 10.0
22/10:30pm 14.0 12.8 12.7 92 0.7 SW 11 13 6 7 1016.5 1016.3 10.0
22/10:00pm 13.9 13.1 12.8 93 0.6 SW 9 9 5 5 1016.4 1016.2 10.0
22/09:30pm 14.1 13.6 12.8 92 0.7 SSW 7 9 4 5 1016.3 1016.1 10.0
22/09:00pm 14.6 14.2 13.0 90 0.9 SE 7 9 4 5 1015.9 1015.7 10.0
22/08:30pm 14.7 13.6 13.2 91 0.8 SE 11 13 6 7 1015.5 1015.3 10.0
22/08:00pm 14.8 14.5 13.2 90 0.9 SSE 7 9 4 5 1015.5 1015.3 9.8
22/07:30pm 15.3 14.5 12.8 85 1.4 ESE 9 11 5 6 1015.0 1014.8 9.6
22/07:00pm 15.4 13.5 11.8 79 2.0 SE 13 19 7 10 1014.4 1014.2 9.6
22/06:30pm 16.2 15.0 12.7 80 1.9 ESE 11 17 6 9 1013.9 1013.8 9.6
22/06:00pm 16.3 15.0 12.5 78 2.1 ESE 11 17 6 9 1013.6 1013.5 9.6
22/05:30pm 16.5 14.1 12.7 78 2.1 ESE 17 24 9 13 1013.3 1013.2 9.6
22/05:19pm 17.0 14.9 13.5 80 2.0 ESE 17 22 9 12 1013.3 1013.2 9.6
22/05:00pm 16.2 14.2 13.9 86 1.3 ESE 17 24 9 13 1013.1 1013.0 9.6
22/04:43pm 15.9 14.1 13.4 85 1.4 ESE 15 20 8 11 1013.0 1012.9 9.6
22/04:30pm 15.7 14.2 13.2 85 1.4 E 13 22 7 12 1012.9 1012.8 9.6
22/04:00pm 15.5 13.3 13.3 87 1.2 ESE 17 24 9 13 1012.6 1012.5 9.6
22/03:30pm 14.4 13.0 13.4 94 0.6 SE 13 19 7 10 1013.0 1012.9 9.6
22/03:19pm 13.9 11.6 13.0 94 0.5 SE 17 22 9 12 1012.9 1012.8 9.6
22/03:00pm 11.8 7.0 10.2 90 0.8 SSE 26 46 14 25 1013.5 1013.4 8.4
22/02:52pm 14.1 10.7 11.1 82 1.6 S 20 46 11 25 1013.3 1013.2 0.2
22/02:30pm 18.3 15.1 11.8 66 3.6 ENE 20 28 11 15 1012.5 1012.4 0.0
22/02:00pm 18.8 15.6 11.1 61 4.2 E 19 30 10 16 1012.6 1012.5 0.0
22/01:30pm 20.5 17.3 10.0 51 5.7 E 17 20 9 11 1012.4 1012.3 0.0
22/01:00pm 21.7 20.0 8.2 42 7.1 WNW 7 13 4 7 1012.5 1012.4 0.0
22/12:30pm 21.0 19.0 8.6 45 6.5 NE 9 20 5 11 1013.1 1013.0 0.0
22/12:00pm 20.3 17.9 8.6 47 6.1 N 11 17 6 9 1013.4 1013.3 0.0
22/11:30am 19.0 16.2 8.4 50 5.5 NNE 13 17 7 9 1014.0 1013.9 0.0
22/11:00am 19.5 18.6 10.5 56 4.9 WNW 6 11 3 6 1014.5 1014.3 0.0
22/10:30am 17.8 15.1 8.9 56 4.6 NNW 13 17 7 9 1014.8 1014.6 0.0
22/10:00am 18.0 15.9 9.6 58 4.4 NNE 11 15 6 8 1015.0 1014.8 0.0
22/09:30am 16.7 15.0 9.9 64 3.6 NW 9 17 5 9 1015.4 1015.2 0.0
22/09:00am 16.9 15.9 11.0 68 3.2 NW 7 20 4 11 1015.3 1015.1 0.0
22/08:30am 15.7 14.7 10.2 70 2.9 NNE 6 9 3 5 1015.4 1015.2 0.0
22/08:00am 13.8 13.0 11.1 84 1.4 N 6 7 3 4 1015.4 1015.2 0.0
22/07:30am 13.3 12.6 11.4 88 1.0 NW 6 7 3 4 1015.3 1015.1 0.0
22/07:00am 12.7 12.6 10.9 89 0.9 WNW 2 6 1 3 1015.2 1015.0 0.0
22/06:30am 12.8 13.0 10.7 87 1.1 CALM 0 0 0 0 1015.2 1015.0 0.0
22/06:00am 13.2 12.1 10.7 85 1.3 SSE 7 9 4 5 1015.0 1014.8 0.0
22/05:30am 12.6 12.4 10.5 87 1.1 S 2 6 1 3 1015.0 1014.8 0.0
22/05:00am 12.8 11.7 10.7 87 1.1 S 7 9 4 5 1014.9 1014.7 0.0
22/04:30am 12.1 11.1 10.3 89 0.9 SSW 6 9 3 5 1015.1 1014.9 0.0
22/04:00am 12.1 11.5 10.3 89 0.9 ESE 4 7 2 4 1015.4 1015.2 0.0
22/03:30am 12.1 10.4 10.0 87 1.1 WSW 9 9 5 5 1015.4 1015.2 0.0
22/03:00am 12.3 9.9 10.2 87 1.1 SW 13 15 7 8 1015.8 1015.6 0.0
22/02:30am 11.9 10.3 10.3 90 0.8 WSW 9 11 5 6 1016.2 1016.0 0.0
22/02:00am 11.7 9.7 10.1 90 0.8 WSW 11 13 6 7 1016.5 1016.3 0.0
22/01:30am 11.9 9.9 10.0 88 1.0 WSW 11 15 6 8 1016.8 1016.6 0.0
22/01:00am 11.8 10.1 10.0 89 0.9 WSW 9 11 5 6 1017.2 1017.0 0.0
22/12:30am 12.0 10.8 9.7 86 1.2 SW 6 7 3 4 1017.4 1017.2 0.0
22/12:00am 12.8 11.6 10.2 84 1.3 SW 7 9 4 5 1017.7 1017.5 0.0
 
Date/Time
EDT
Temp
°C
App
Temp
°C
Dew
Point
°C
Rel
Hum
%
Delta-T
°C
Wind Press
QNH
hPa
Press
MSL
hPa
Rain since
9am
mm
Dir  Spd
km/h
Gust
km/h
Spd
kts
Gust
kts
21/11:30pm 13.1 11.1 10.3 83 1.5 SW 11 15 6 8 1018.0 1017.8 0.0
21/11:00pm 12.9 11.3 10.3 84 1.3 SW 9 13 5 7 1018.1 1017.9 0.0
21/10:30pm 12.4 10.4 10.1 86 1.2 SW 11 13 6 7 1018.3 1018.1 0.0
21/10:00pm 12.1 10.9 10.3 89 0.9 SW 7 9 4 5 1018.5 1018.3 0.0
21/09:30pm 11.4 10.9 9.5 88 1.0 S 2 7 1 4 1018.5 1018.3 0.0
21/09:00pm 12.0 10.8 9.4 84 1.3 SSE 6 6 3 3 1018.5 1018.3 0.0
21/08:30pm 12.5 11.2 9.3 81 1.6 SSE 6 6 3 3 1018.3 1018.1 0.0
21/08:00pm 14.1 12.9 9.5 74 2.4 SE 6 7 3 4 1018.1 1017.9 0.0
21/07:30pm 15.0 13.6 9.6 70 2.8 ESE 7 13 4 7 1018.1 1017.9 0.0
21/07:00pm 15.5 12.5 9.2 66 3.2 ESE 15 26 8 14 1018.1 1017.9 0.0
21/06:30pm 16.3 12.9 9.0 62 3.8 ESE 17 22 9 12 1018.1 1017.9 0.0
21/06:00pm 17.2 13.2 8.9 58 4.3 SE 20 28 11 15 1018.0 1017.8 0.0
21/05:30pm 17.3 13.7 8.2 55 4.7 ESE 17 20 9 11 1018.1 1017.9 0.0
21/05:00pm 18.1 14.1 8.4 53 5.0 ESE 19 24 10 13 1018.1 1017.9 0.0
21/04:30pm 18.5 14.4 8.7 53 5.1 SE 20 32 11 17 1018.2 1018.0 0.0
21/04:00pm 18.1 13.9 8.4 53 5.0 SSE 20 28 11 15 1018.5 1018.3 0.0
21/03:30pm 18.2 14.0 8.2 52 5.1 SE 20 28 11 15 1018.7 1018.5 0.0
21/03:00pm 18.5 13.8 7.6 49 5.5 SE 22 32 12 17 1019.1 1018.9 0.0
21/02:30pm 19.1 14.2 8.4 50 5.6 SE 24 39 13 21 1019.4 1019.3 0.0
21/02:00pm 19.3 15.0 9.5 53 5.2 SSE 22 32 12 17 1019.8 1019.7 0.0
21/01:30pm 19.1 15.0 8.7 51 5.4 SSE 20 30 11 16 1020.4 1020.3 0.0
21/01:00pm 18.3 13.4 8.3 52 5.1 SSE 24 39 13 21 1020.6 1020.5 0.0
21/12:30pm 17.3 12.3 7.9 54 4.8 SSE 24 32 13 17 1021.0 1020.9 0.0
21/12:00pm 17.6 12.6 8.2 54 4.8 SSE 24 30 13 16 1021.3 1021.2 0.0
21/11:30am 17.3 13.1 7.4 52 5.0 SSE 19 30 10 16 1021.8 1021.7 0.0
21/11:00am 18.0 13.4 8.0 52 5.1 S 22 39 12 21 1022.0 1021.9 0.0
21/10:30am 16.9 12.0 7.0 52 4.9 S 22 32 12 17 1022.3 1022.2 0.0
21/10:00am 16.4 12.0 7.6 56 4.4 S 20 30 11 16 1022.3 1022.2 0.0
21/09:30am 15.7 11.9 7.7 59 4.0 SSW 17 26 9 14 1022.3 1022.2 0.0
21/09:00am 14.7 11.7 7.5 62 3.6 SW 13 19 7 10 1022.4 1022.3 11.8
21/08:30am 14.3 10.9 7.6 64 3.3 WSW 15 20 8 11 1022.6 1022.5 11.8
21/08:00am 13.4 9.8 6.7 64 3.2 WSW 15 24 8 13 1022.6 1022.5 11.8
21/07:30am 12.1 9.7 7.0 71 2.5 SW 9 13 5 7 1022.5 1022.4 11.8
21/07:00am 11.2 8.3 6.5 73 2.2 SW 11 17 6 9 1022.4 1022.3 11.8
21/06:30am 10.9 8.5 6.8 76 1.9 SW 9 13 5 7 1022.5 1022.4 11.8
21/06:00am 10.8 7.9 6.7 76 1.9 SW 11 15 6 8 1022.3 1022.2 11.8

Other Formats:

Comma delimited format used in spreadsheet applications
http://www.bom.gov.au/fwo/IDN60801/IDN60801.95761.axf

JavaScript Object Notation format (JSON) in row-major order
http://www.bom.gov.au/fwo/IDN60801/IDN60801.95761.json